<?xml version="1.0" encoding="UTF-8" standalone="no" ?>
<gpx xmlns="http://www.topografix.com/GPX/1/1" xmlns:xsi="http://www.w3.org/2001/XMLSchema-instance" xsi:schemaLocation="http://www.topografix.com/GPX/1/1 http://www.topografix.com/GPX/1/1/gpx.xsd" version="1.1" creator="VisuGPX - https://www.visugpx.com">
  <metadata>
    <name>Tour du Serre de Garde Giral</name>
    <desc><![CDATA[Boucle facile sur des chemin carrossables dans les bois de pin du hameau de Garde Giral]]></desc>
  </metadata>
  <trk>
    <name><![CDATA[2016-04-15 13:57]]></name>
    <desc><![CDATA[Total: 5.7km]]></desc>
    <trkseg>
      <trkpt lat="44.38041" lon="4.11173">
        <ele>295.93</ele>
        <time>2016-04-15T11:55:48Z</time>
      </trkpt>
      <trkpt lat="44.38023" lon="4.11171">
        <ele>302.34</ele>
        <time>2016-04-15T11:57:04Z</time>
      </trkpt>
      <trkpt lat="44.38005" lon="4.11171">
        <ele>307.41</ele>
        <time>2016-04-15T11:57:16Z</time>
      </trkpt>
      <trkpt lat="44.37993" lon="4.11191">
        <ele>318.5</ele>
        <time>2016-04-15T11:57:36Z</time>
      </trkpt>
      <trkpt lat="44.37996" lon="4.11216">
        <ele>321.8</ele>
        <time>2016-04-15T11:57:56Z</time>
      </trkpt>
      <trkpt lat="44.37993" lon="4.11241">
        <ele>326.64</ele>
        <time>2016-04-15T11:58:14Z</time>
      </trkpt>
      <trkpt lat="44.37981" lon="4.1126">
        <ele>327.7</ele>
        <time>2016-04-15T11:58:36Z</time>
      </trkpt>
      <trkpt lat="44.37971" lon="4.11282">
        <ele>321.45</ele>
        <time>2016-04-15T11:58:53Z</time>
      </trkpt>
      <trkpt lat="44.37954" lon="4.11292">
        <ele>317.7</ele>
        <time>2016-04-15T11:59:13Z</time>
      </trkpt>
      <trkpt lat="44.37956" lon="4.11318">
        <ele>322.73</ele>
        <time>2016-04-15T11:59:28Z</time>
      </trkpt>
      <trkpt lat="44.37971" lon="4.11333">
        <ele>333.9</ele>
        <time>2016-04-15T11:59:58Z</time>
      </trkpt>
      <trkpt lat="44.37989" lon="4.1133">
        <ele>334.46</ele>
        <time>2016-04-15T12:00:15Z</time>
      </trkpt>
      <trkpt lat="44.38004" lon="4.11345">
        <ele>331.68</ele>
        <time>2016-04-15T12:00:32Z</time>
      </trkpt>
      <trkpt lat="44.38007" lon="4.11371">
        <ele>332.08</ele>
        <time>2016-04-15T12:00:54Z</time>
      </trkpt>
      <trkpt lat="44.38006" lon="4.11398">
        <ele>334.9</ele>
        <time>2016-04-15T12:01:29Z</time>
      </trkpt>
      <trkpt lat="44.38" lon="4.11422">
        <ele>337.48</ele>
        <time>2016-04-15T12:01:42Z</time>
      </trkpt>
      <trkpt lat="44.37985" lon="4.11437">
        <ele>337.88</ele>
        <time>2016-04-15T12:01:56Z</time>
      </trkpt>
      <trkpt lat="44.37974" lon="4.11458">
        <ele>331.86</ele>
        <time>2016-04-15T12:02:12Z</time>
      </trkpt>
      <trkpt lat="44.37963" lon="4.11479">
        <ele>333.84</ele>
        <time>2016-04-15T12:02:34Z</time>
      </trkpt>
      <trkpt lat="44.37954" lon="4.11502">
        <ele>336.48</ele>
        <time>2016-04-15T12:02:50Z</time>
      </trkpt>
      <trkpt lat="44.37961" lon="4.11527">
        <ele>333.89</ele>
        <time>2016-04-15T12:03:06Z</time>
      </trkpt>
      <trkpt lat="44.37972" lon="4.11547">
        <ele>335.48</ele>
        <time>2016-04-15T12:03:23Z</time>
      </trkpt>
      <trkpt lat="44.37983" lon="4.11568">
        <ele>339.93</ele>
        <time>2016-04-15T12:03:36Z</time>
      </trkpt>
      <trkpt lat="44.38002" lon="4.11577">
        <ele>339.9</ele>
        <time>2016-04-15T12:03:49Z</time>
      </trkpt>
      <trkpt lat="44.3802" lon="4.11569">
        <ele>337.72</ele>
        <time>2016-04-15T12:04:02Z</time>
      </trkpt>
      <trkpt lat="44.38035" lon="4.11554">
        <ele>339.57</ele>
        <time>2016-04-15T12:04:21Z</time>
      </trkpt>
      <trkpt lat="44.38053" lon="4.11553">
        <ele>335.68</ele>
        <time>2016-04-15T12:04:35Z</time>
      </trkpt>
      <trkpt lat="44.38068" lon="4.11568">
        <ele>325.51</ele>
        <time>2016-04-15T12:04:57Z</time>
      </trkpt>
      <trkpt lat="44.38082" lon="4.11585">
        <ele>331.66</ele>
        <time>2016-04-15T12:05:15Z</time>
      </trkpt>
      <trkpt lat="44.38082" lon="4.1161">
        <ele>335.63</ele>
        <time>2016-04-15T12:05:32Z</time>
      </trkpt>
      <trkpt lat="44.38072" lon="4.11633">
        <ele>332.84</ele>
        <time>2016-04-15T12:05:52Z</time>
      </trkpt>
      <trkpt lat="44.38068" lon="4.11659">
        <ele>334.68</ele>
        <time>2016-04-15T12:06:11Z</time>
      </trkpt>
      <trkpt lat="44.38063" lon="4.11683">
        <ele>331.9</ele>
        <time>2016-04-15T12:06:28Z</time>
      </trkpt>
      <trkpt lat="44.38056" lon="4.11706">
        <ele>328.05</ele>
        <time>2016-04-15T12:07:04Z</time>
      </trkpt>
      <trkpt lat="44.38066" lon="4.11728">
        <ele>330.84</ele>
        <time>2016-04-15T12:07:30Z</time>
      </trkpt>
      <trkpt lat="44.38079" lon="4.11746">
        <ele>342.65</ele>
        <time>2016-04-15T12:07:51Z</time>
      </trkpt>
      <trkpt lat="44.38092" lon="4.11764">
        <ele>341.89</ele>
        <time>2016-04-15T12:08:09Z</time>
      </trkpt>
      <trkpt lat="44.38094" lon="4.1179">
        <ele>339.69</ele>
        <time>2016-04-15T12:08:27Z</time>
      </trkpt>
      <trkpt lat="44.38096" lon="4.11815">
        <ele>337.9</ele>
        <time>2016-04-15T12:08:42Z</time>
      </trkpt>
      <trkpt lat="44.38088" lon="4.11838">
        <ele>330.9</ele>
        <time>2016-04-15T12:09:01Z</time>
      </trkpt>
      <trkpt lat="44.3807" lon="4.11833">
        <ele>330.73</ele>
        <time>2016-04-15T12:09:24Z</time>
      </trkpt>
      <trkpt lat="44.38055" lon="4.11817">
        <ele>326.3</ele>
        <time>2016-04-15T12:09:40Z</time>
      </trkpt>
      <trkpt lat="44.38042" lon="4.118">
        <ele>323.93</ele>
        <time>2016-04-15T12:09:59Z</time>
      </trkpt>
      <trkpt lat="44.38029" lon="4.1178">
        <ele>331.5</ele>
        <time>2016-04-15T12:10:20Z</time>
      </trkpt>
      <trkpt lat="44.38016" lon="4.11764">
        <ele>336.72</ele>
        <time>2016-04-15T12:10:40Z</time>
      </trkpt>
      <trkpt lat="44.38" lon="4.11752">
        <ele>337.84</ele>
        <time>2016-04-15T12:11:00Z</time>
      </trkpt>
      <trkpt lat="44.37983" lon="4.11739">
        <ele>339.88</ele>
        <time>2016-04-15T12:11:17Z</time>
      </trkpt>
      <trkpt lat="44.37968" lon="4.11725">
        <ele>341.48</ele>
        <time>2016-04-15T12:11:34Z</time>
      </trkpt>
      <trkpt lat="44.37951" lon="4.11715">
        <ele>337.32</ele>
        <time>2016-04-15T12:11:48Z</time>
      </trkpt>
      <trkpt lat="44.37933" lon="4.11709">
        <ele>341.72</ele>
        <time>2016-04-15T12:12:04Z</time>
      </trkpt>
      <trkpt lat="44.37915" lon="4.11697">
        <ele>342.54</ele>
        <time>2016-04-15T12:12:26Z</time>
      </trkpt>
      <trkpt lat="44.37898" lon="4.11689">
        <ele>346.49</ele>
        <time>2016-04-15T12:12:45Z</time>
      </trkpt>
      <trkpt lat="44.37881" lon="4.11678">
        <ele>343.89</ele>
        <time>2016-04-15T12:13:04Z</time>
      </trkpt>
      <trkpt lat="44.37867" lon="4.1166">
        <ele>346.85</ele>
        <time>2016-04-15T12:13:23Z</time>
      </trkpt>
      <trkpt lat="44.37853" lon="4.11643">
        <ele>344.65</ele>
        <time>2016-04-15T12:13:38Z</time>
      </trkpt>
      <trkpt lat="44.37838" lon="4.11628">
        <ele>342.9</ele>
        <time>2016-04-15T12:13:54Z</time>
      </trkpt>
      <trkpt lat="44.37823" lon="4.11614">
        <ele>341.68</ele>
        <time>2016-04-15T12:14:14Z</time>
      </trkpt>
      <trkpt lat="44.37804" lon="4.11618">
        <ele>363.54</ele>
        <time>2016-04-15T12:14:42Z</time>
      </trkpt>
      <trkpt lat="44.37787" lon="4.11624">
        <ele>358.91</ele>
        <time>2016-04-15T12:14:56Z</time>
      </trkpt>
      <trkpt lat="44.37768" lon="4.11624">
        <ele>349.12</ele>
        <time>2016-04-15T12:15:11Z</time>
      </trkpt>
      <trkpt lat="44.37751" lon="4.11634">
        <ele>355.72</ele>
        <time>2016-04-15T12:15:33Z</time>
      </trkpt>
      <trkpt lat="44.37733" lon="4.11638">
        <ele>350.13</ele>
        <time>2016-04-15T12:15:51Z</time>
      </trkpt>
      <trkpt lat="44.37715" lon="4.11645">
        <ele>352.93</ele>
        <time>2016-04-15T12:16:16Z</time>
      </trkpt>
      <trkpt lat="44.37699" lon="4.11657">
        <ele>360.82</ele>
        <time>2016-04-15T12:16:37Z</time>
      </trkpt>
      <trkpt lat="44.37681" lon="4.11661">
        <ele>369.46</ele>
        <time>2016-04-15T12:23:39Z</time>
      </trkpt>
      <trkpt lat="44.37664" lon="4.11673">
        <ele>367.72</ele>
        <time>2016-04-15T12:24:04Z</time>
      </trkpt>
      <trkpt lat="44.37648" lon="4.11686">
        <ele>368.9</ele>
        <time>2016-04-15T12:24:22Z</time>
      </trkpt>
      <trkpt lat="44.37631" lon="4.11695">
        <ele>368.51</ele>
        <time>2016-04-15T12:24:40Z</time>
      </trkpt>
      <trkpt lat="44.37613" lon="4.11695">
        <ele>374.6</ele>
        <time>2016-04-15T12:25:01Z</time>
      </trkpt>
      <trkpt lat="44.37595" lon="4.11701">
        <ele>371.73</ele>
        <time>2016-04-15T12:25:24Z</time>
      </trkpt>
      <trkpt lat="44.37578" lon="4.1171">
        <ele>368.85</ele>
        <time>2016-04-15T12:25:47Z</time>
      </trkpt>
      <trkpt lat="44.37564" lon="4.11727">
        <ele>371.49</ele>
        <time>2016-04-15T12:26:24Z</time>
      </trkpt>
      <trkpt lat="44.37546" lon="4.1173">
        <ele>369.12</ele>
        <time>2016-04-15T12:26:42Z</time>
      </trkpt>
      <trkpt lat="44.37527" lon="4.11734">
        <ele>378.13</ele>
        <time>2016-04-15T12:27:04Z</time>
      </trkpt>
      <trkpt lat="44.3751" lon="4.11741">
        <ele>384.57</ele>
        <time>2016-04-15T12:27:16Z</time>
      </trkpt>
      <trkpt lat="44.37497" lon="4.11761">
        <ele>379.69</ele>
        <time>2016-04-15T12:27:34Z</time>
      </trkpt>
      <trkpt lat="44.37485" lon="4.11781">
        <ele>380.65</ele>
        <time>2016-04-15T12:27:50Z</time>
      </trkpt>
      <trkpt lat="44.37474" lon="4.11801">
        <ele>372.54</ele>
        <time>2016-04-15T12:28:09Z</time>
      </trkpt>
      <trkpt lat="44.37462" lon="4.11821">
        <ele>377.25</ele>
        <time>2016-04-15T12:28:28Z</time>
      </trkpt>
      <trkpt lat="44.37453" lon="4.11843">
        <ele>348.57</ele>
        <time>2016-04-15T12:28:42Z</time>
      </trkpt>
      <trkpt lat="44.37444" lon="4.11866">
        <ele>371.24</ele>
        <time>2016-04-15T12:29:00Z</time>
      </trkpt>
      <trkpt lat="44.3743" lon="4.11883">
        <ele>377.84</ele>
        <time>2016-04-15T12:29:16Z</time>
      </trkpt>
      <trkpt lat="44.37421" lon="4.11905">
        <ele>372.69</ele>
        <time>2016-04-15T12:29:30Z</time>
      </trkpt>
      <trkpt lat="44.37403" lon="4.1191">
        <ele>379.66</ele>
        <time>2016-04-15T12:30:31Z</time>
      </trkpt>
      <trkpt lat="44.37385" lon="4.11902">
        <ele>378.93</ele>
        <time>2016-04-15T12:30:47Z</time>
      </trkpt>
      <trkpt lat="44.37366" lon="4.11898">
        <ele>382.08</ele>
        <time>2016-04-15T12:31:29Z</time>
      </trkpt>
      <trkpt lat="44.37347" lon="4.11897">
        <ele>394.47</ele>
        <time>2016-04-15T12:32:01Z</time>
      </trkpt>
      <trkpt lat="44.37331" lon="4.11887">
        <ele>395.68</ele>
        <time>2016-04-15T12:32:14Z</time>
      </trkpt>
      <trkpt lat="44.37315" lon="4.11874">
        <ele>387.82</ele>
        <time>2016-04-15T12:32:28Z</time>
      </trkpt>
      <trkpt lat="44.373" lon="4.1186">
        <ele>390.74</ele>
        <time>2016-04-15T12:32:46Z</time>
      </trkpt>
      <trkpt lat="44.37282" lon="4.11853">
        <ele>395.8</ele>
        <time>2016-04-15T12:33:09Z</time>
      </trkpt>
      <trkpt lat="44.37263" lon="4.1185">
        <ele>396.39</ele>
        <time>2016-04-15T12:33:24Z</time>
      </trkpt>
      <trkpt lat="44.37246" lon="4.11861">
        <ele>400.29</ele>
        <time>2016-04-15T12:33:37Z</time>
      </trkpt>
      <trkpt lat="44.37227" lon="4.11862">
        <ele>385.24</ele>
        <time>2016-04-15T12:33:55Z</time>
      </trkpt>
      <trkpt lat="44.37208" lon="4.11861">
        <ele>413.83</ele>
        <time>2016-04-15T12:34:28Z</time>
      </trkpt>
      <trkpt lat="44.3719" lon="4.11853">
        <ele>406.33</ele>
        <time>2016-04-15T12:34:40Z</time>
      </trkpt>
      <trkpt lat="44.37172" lon="4.11848">
        <ele>410.53</ele>
        <time>2016-04-15T12:34:55Z</time>
      </trkpt>
      <trkpt lat="44.37154" lon="4.11844">
        <ele>410.28</ele>
        <time>2016-04-15T12:35:10Z</time>
      </trkpt>
      <trkpt lat="44.37135" lon="4.1185">
        <ele>418.48</ele>
        <time>2016-04-15T12:35:23Z</time>
      </trkpt>
      <trkpt lat="44.37116" lon="4.11849">
        <ele>410.74</ele>
        <time>2016-04-15T12:35:34Z</time>
      </trkpt>
      <trkpt lat="44.371" lon="4.1186">
        <ele>399.73</ele>
        <time>2016-04-15T12:35:54Z</time>
      </trkpt>
      <trkpt lat="44.37083" lon="4.11871">
        <ele>408.93</ele>
        <time>2016-04-15T12:36:23Z</time>
      </trkpt>
      <trkpt lat="44.37064" lon="4.11874">
        <ele>407.69</ele>
        <time>2016-04-15T12:36:40Z</time>
      </trkpt>
      <trkpt lat="44.37047" lon="4.11884">
        <ele>411.93</ele>
        <time>2016-04-15T12:36:53Z</time>
      </trkpt>
      <trkpt lat="44.37029" lon="4.11891">
        <ele>414.82</ele>
        <time>2016-04-15T12:37:09Z</time>
      </trkpt>
      <trkpt lat="44.37021" lon="4.11916">
        <ele>416.14</ele>
        <time>2016-04-15T12:37:27Z</time>
      </trkpt>
      <trkpt lat="44.37015" lon="4.11941">
        <ele>409.7</ele>
        <time>2016-04-15T12:37:44Z</time>
      </trkpt>
      <trkpt lat="44.3701" lon="4.11965">
        <ele>403.77</ele>
        <time>2016-04-15T12:38:06Z</time>
      </trkpt>
      <trkpt lat="44.37003" lon="4.11988">
        <ele>402.69</ele>
        <time>2016-04-15T12:38:24Z</time>
      </trkpt>
      <trkpt lat="44.36991" lon="4.12007">
        <ele>400.73</ele>
        <time>2016-04-15T12:38:40Z</time>
      </trkpt>
      <trkpt lat="44.3698" lon="4.12027">
        <ele>409.78</ele>
        <time>2016-04-15T12:38:56Z</time>
      </trkpt>
      <trkpt lat="44.36978" lon="4.12053">
        <ele>400.77</ele>
        <time>2016-04-15T12:39:13Z</time>
      </trkpt>
      <trkpt lat="44.36961" lon="4.12063">
        <ele>409.45</ele>
        <time>2016-04-15T12:39:34Z</time>
      </trkpt>
      <trkpt lat="44.36944" lon="4.1205">
        <ele>400.14</ele>
        <time>2016-04-15T12:39:58Z</time>
      </trkpt>
      <trkpt lat="44.36928" lon="4.12037">
        <ele>405.64</ele>
        <time>2016-04-15T12:40:11Z</time>
      </trkpt>
      <trkpt lat="44.36923" lon="4.1201">
        <ele>408.9</ele>
        <time>2016-04-15T12:40:43Z</time>
      </trkpt>
      <trkpt lat="44.36926" lon="4.11985">
        <ele>407.91</ele>
        <time>2016-04-15T12:40:55Z</time>
      </trkpt>
      <trkpt lat="44.36925" lon="4.11959">
        <ele>408.86</ele>
        <time>2016-04-15T12:41:08Z</time>
      </trkpt>
      <trkpt lat="44.36928" lon="4.11934">
        <ele>406.49</ele>
        <time>2016-04-15T12:41:25Z</time>
      </trkpt>
      <trkpt lat="44.36938" lon="4.11913">
        <ele>408.85</ele>
        <time>2016-04-15T12:41:50Z</time>
      </trkpt>
      <trkpt lat="44.3694" lon="4.11887">
        <ele>413.69</ele>
        <time>2016-04-15T12:42:08Z</time>
      </trkpt>
      <trkpt lat="44.36932" lon="4.11864">
        <ele>411.77</ele>
        <time>2016-04-15T12:42:22Z</time>
      </trkpt>
      <trkpt lat="44.36926" lon="4.11838">
        <ele>407.84</ele>
        <time>2016-04-15T12:42:43Z</time>
      </trkpt>
      <trkpt lat="44.36921" lon="4.11813">
        <ele>405.72</ele>
        <time>2016-04-15T12:42:56Z</time>
      </trkpt>
      <trkpt lat="44.36908" lon="4.11796">
        <ele>406.66</ele>
        <time>2016-04-15T12:43:13Z</time>
      </trkpt>
      <trkpt lat="44.36891" lon="4.11781">
        <ele>405.65</ele>
        <time>2016-04-15T12:43:45Z</time>
      </trkpt>
      <trkpt lat="44.36873" lon="4.11776">
        <ele>404.71</ele>
        <time>2016-04-15T12:43:52Z</time>
      </trkpt>
      <trkpt lat="44.36859" lon="4.11759">
        <ele>397.11</ele>
        <time>2016-04-15T12:44:03Z</time>
      </trkpt>
      <trkpt lat="44.36846" lon="4.11741">
        <ele>408.69</ele>
        <time>2016-04-15T12:44:22Z</time>
      </trkpt>
      <trkpt lat="44.36828" lon="4.11733">
        <ele>404.05</ele>
        <time>2016-04-15T12:44:37Z</time>
      </trkpt>
      <trkpt lat="44.36808" lon="4.11736">
        <ele>409.62</ele>
        <time>2016-04-15T12:44:52Z</time>
      </trkpt>
      <trkpt lat="44.3679" lon="4.11736">
        <ele>396.54</ele>
        <time>2016-04-15T12:45:21Z</time>
      </trkpt>
      <trkpt lat="44.36773" lon="4.11727">
        <ele>399.69</ele>
        <time>2016-04-15T12:45:43Z</time>
      </trkpt>
      <trkpt lat="44.36755" lon="4.11721">
        <ele>398.39</ele>
        <time>2016-04-15T12:46:31Z</time>
      </trkpt>
      <trkpt lat="44.36737" lon="4.1172">
        <ele>393.93</ele>
        <time>2016-04-15T12:49:25Z</time>
      </trkpt>
      <trkpt lat="44.3672" lon="4.11708">
        <ele>401.5</ele>
        <time>2016-04-15T12:51:01Z</time>
      </trkpt>
      <trkpt lat="44.3673" lon="4.11687">
        <ele>401.45</ele>
        <time>2016-04-15T12:51:51Z</time>
      </trkpt>
      <trkpt lat="44.36726" lon="4.11661">
        <ele>397.51</ele>
        <time>2016-04-15T12:52:15Z</time>
      </trkpt>
      <trkpt lat="44.36717" lon="4.11638">
        <ele>403.51</ele>
        <time>2016-04-15T12:52:33Z</time>
      </trkpt>
      <trkpt lat="44.36712" lon="4.11613">
        <ele>404.53</ele>
        <time>2016-04-15T12:52:51Z</time>
      </trkpt>
      <trkpt lat="44.36699" lon="4.11596">
        <ele>404.67</ele>
        <time>2016-04-15T12:53:10Z</time>
      </trkpt>
      <trkpt lat="44.3669" lon="4.11571">
        <ele>391.05</ele>
        <time>2016-04-15T12:53:21Z</time>
      </trkpt>
      <trkpt lat="44.36678" lon="4.11552">
        <ele>382.1</ele>
        <time>2016-04-15T12:53:36Z</time>
      </trkpt>
      <trkpt lat="44.36673" lon="4.11527">
        <ele>382.1</ele>
        <time>2016-04-15T12:53:50Z</time>
      </trkpt>
      <trkpt lat="44.36659" lon="4.11507">
        <ele>379.78</ele>
        <time>2016-04-15T12:54:07Z</time>
      </trkpt>
      <trkpt lat="44.36645" lon="4.11489">
        <ele>379.73</ele>
        <time>2016-04-15T12:54:21Z</time>
      </trkpt>
      <trkpt lat="44.36632" lon="4.1147">
        <ele>387.96</ele>
        <time>2016-04-15T12:54:49Z</time>
      </trkpt>
      <trkpt lat="44.36629" lon="4.11445">
        <ele>380.69</ele>
        <time>2016-04-15T12:55:05Z</time>
      </trkpt>
      <trkpt lat="44.36629" lon="4.1142">
        <ele>371.69</ele>
        <time>2016-04-15T12:55:29Z</time>
      </trkpt>
      <trkpt lat="44.36634" lon="4.11395">
        <ele>384.7</ele>
        <time>2016-04-15T12:55:58Z</time>
      </trkpt>
      <trkpt lat="44.36641" lon="4.1137">
        <ele>385.45</ele>
        <time>2016-04-15T12:56:08Z</time>
      </trkpt>
      <trkpt lat="44.36653" lon="4.11351">
        <ele>383.5</ele>
        <time>2016-04-15T12:56:20Z</time>
      </trkpt>
      <trkpt lat="44.36664" lon="4.1133">
        <ele>388.49</ele>
        <time>2016-04-15T12:56:38Z</time>
      </trkpt>
      <trkpt lat="44.3667" lon="4.11306">
        <ele>389.55</ele>
        <time>2016-04-15T12:56:53Z</time>
      </trkpt>
      <trkpt lat="44.36672" lon="4.11281">
        <ele>397.73</ele>
        <time>2016-04-15T12:57:10Z</time>
      </trkpt>
      <trkpt lat="44.36674" lon="4.11255">
        <ele>397.7</ele>
        <time>2016-04-15T12:57:27Z</time>
      </trkpt>
      <trkpt lat="44.3668" lon="4.11231">
        <ele>387.67</ele>
        <time>2016-04-15T12:57:46Z</time>
      </trkpt>
      <trkpt lat="44.36673" lon="4.11207">
        <ele>385.25</ele>
        <time>2016-04-15T12:58:02Z</time>
      </trkpt>
      <trkpt lat="44.36664" lon="4.11183">
        <ele>373</ele>
        <time>2016-04-15T12:58:16Z</time>
      </trkpt>
      <trkpt lat="44.36654" lon="4.11162">
        <ele>375.13</ele>
        <time>2016-04-15T12:58:38Z</time>
      </trkpt>
      <trkpt lat="44.36636" lon="4.11153">
        <ele>376.7</ele>
        <time>2016-04-15T12:58:50Z</time>
      </trkpt>
      <trkpt lat="44.36619" lon="4.11142">
        <ele>376.15</ele>
        <time>2016-04-15T12:59:07Z</time>
      </trkpt>
      <trkpt lat="44.36602" lon="4.11131">
        <ele>365.24</ele>
        <time>2016-04-15T12:59:54Z</time>
      </trkpt>
      <trkpt lat="44.36584" lon="4.11136">
        <ele>374.84</ele>
        <time>2016-04-15T13:00:12Z</time>
      </trkpt>
      <trkpt lat="44.36567" lon="4.11125">
        <ele>367.69</ele>
        <time>2016-04-15T13:00:27Z</time>
      </trkpt>
      <trkpt lat="44.36551" lon="4.11113">
        <ele>371.57</ele>
        <time>2016-04-15T13:00:47Z</time>
      </trkpt>
      <trkpt lat="44.36534" lon="4.11109">
        <ele>375.63</ele>
        <time>2016-04-15T13:01:03Z</time>
      </trkpt>
      <trkpt lat="44.36516" lon="4.11103">
        <ele>372.66</ele>
        <time>2016-04-15T13:01:25Z</time>
      </trkpt>
      <trkpt lat="44.36509" lon="4.11079">
        <ele>360.69</ele>
        <time>2016-04-15T13:01:47Z</time>
      </trkpt>
      <trkpt lat="44.36504" lon="4.11054">
        <ele>366.64</ele>
        <time>2016-04-15T13:02:01Z</time>
      </trkpt>
      <trkpt lat="44.365" lon="4.11029">
        <ele>358.94</ele>
        <time>2016-04-15T13:02:21Z</time>
      </trkpt>
      <trkpt lat="44.36498" lon="4.11003">
        <ele>353.57</ele>
        <time>2016-04-15T13:03:07Z</time>
      </trkpt>
      <trkpt lat="44.3651" lon="4.10983">
        <ele>354.88</ele>
        <time>2016-04-15T13:03:27Z</time>
      </trkpt>
      <trkpt lat="44.36524" lon="4.10968">
        <ele>351.73</ele>
        <time>2016-04-15T13:03:46Z</time>
      </trkpt>
      <trkpt lat="44.36534" lon="4.10946">
        <ele>355.64</ele>
        <time>2016-04-15T13:04:06Z</time>
      </trkpt>
      <trkpt lat="44.36543" lon="4.10924">
        <ele>353.5</ele>
        <time>2016-04-15T13:04:31Z</time>
      </trkpt>
      <trkpt lat="44.36556" lon="4.10905">
        <ele>358.53</ele>
        <time>2016-04-15T13:04:49Z</time>
      </trkpt>
      <trkpt lat="44.36567" lon="4.10883">
        <ele>360.93</ele>
        <time>2016-04-15T13:05:12Z</time>
      </trkpt>
      <trkpt lat="44.3658" lon="4.10865">
        <ele>358.7</ele>
        <time>2016-04-15T13:05:26Z</time>
      </trkpt>
      <trkpt lat="44.36596" lon="4.10851">
        <ele>348.93</ele>
        <time>2016-04-15T13:05:45Z</time>
      </trkpt>
      <trkpt lat="44.36613" lon="4.10838">
        <ele>343.73</ele>
        <time>2016-04-15T13:06:01Z</time>
      </trkpt>
      <trkpt lat="44.3663" lon="4.10829">
        <ele>340.14</ele>
        <time>2016-04-15T13:06:16Z</time>
      </trkpt>
      <trkpt lat="44.36648" lon="4.10822">
        <ele>345.84</ele>
        <time>2016-04-15T13:06:35Z</time>
      </trkpt>
      <trkpt lat="44.36662" lon="4.10806">
        <ele>350.66</ele>
        <time>2016-04-15T13:06:57Z</time>
      </trkpt>
      <trkpt lat="44.36676" lon="4.10789">
        <ele>355.62</ele>
        <time>2016-04-15T13:07:12Z</time>
      </trkpt>
      <trkpt lat="44.3669" lon="4.10773">
        <ele>356.86</ele>
        <time>2016-04-15T13:07:33Z</time>
      </trkpt>
      <trkpt lat="44.36704" lon="4.10756">
        <ele>342.01</ele>
        <time>2016-04-15T13:07:41Z</time>
      </trkpt>
      <trkpt lat="44.36722" lon="4.10753">
        <ele>340.69</ele>
        <time>2016-04-15T13:08:10Z</time>
      </trkpt>
      <trkpt lat="44.36729" lon="4.10777">
        <ele>346.29</ele>
        <time>2016-04-15T13:09:17Z</time>
      </trkpt>
      <trkpt lat="44.36735" lon="4.10802">
        <ele>345.5</ele>
        <time>2016-04-15T13:09:35Z</time>
      </trkpt>
      <trkpt lat="44.36749" lon="4.10819">
        <ele>350.45</ele>
        <time>2016-04-15T13:10:14Z</time>
      </trkpt>
      <trkpt lat="44.36765" lon="4.1083">
        <ele>348.56</ele>
        <time>2016-04-15T13:10:37Z</time>
      </trkpt>
      <trkpt lat="44.36782" lon="4.10844">
        <ele>342.86</ele>
        <time>2016-04-15T13:10:53Z</time>
      </trkpt>
      <trkpt lat="44.36797" lon="4.10858">
        <ele>346.69</ele>
        <time>2016-04-15T13:11:12Z</time>
      </trkpt>
      <trkpt lat="44.36814" lon="4.10869">
        <ele>343.66</ele>
        <time>2016-04-15T13:11:26Z</time>
      </trkpt>
      <trkpt lat="44.36834" lon="4.10873">
        <ele>341.68</ele>
        <time>2016-04-15T13:11:52Z</time>
      </trkpt>
      <trkpt lat="44.36851" lon="4.10885">
        <ele>343.66</ele>
        <time>2016-04-15T13:12:09Z</time>
      </trkpt>
      <trkpt lat="44.36865" lon="4.10901">
        <ele>347.41</ele>
        <time>2016-04-15T13:12:23Z</time>
      </trkpt>
      <trkpt lat="44.36882" lon="4.10914">
        <ele>341.41</ele>
        <time>2016-04-15T13:12:43Z</time>
      </trkpt>
      <trkpt lat="44.36899" lon="4.10924">
        <ele>345.62</ele>
        <time>2016-04-15T13:13:12Z</time>
      </trkpt>
      <trkpt lat="44.36917" lon="4.10932">
        <ele>342.34</ele>
        <time>2016-04-15T13:13:30Z</time>
      </trkpt>
      <trkpt lat="44.36935" lon="4.1093">
        <ele>349.48</ele>
        <time>2016-04-15T13:13:49Z</time>
      </trkpt>
      <trkpt lat="44.36953" lon="4.10939">
        <ele>347.69</ele>
        <time>2016-04-15T13:14:16Z</time>
      </trkpt>
      <trkpt lat="44.36971" lon="4.10937">
        <ele>346.69</ele>
        <time>2016-04-15T13:14:29Z</time>
      </trkpt>
      <trkpt lat="44.36989" lon="4.1094">
        <ele>346.69</ele>
        <time>2016-04-15T13:14:44Z</time>
      </trkpt>
      <trkpt lat="44.37007" lon="4.10933">
        <ele>340.95</ele>
        <time>2016-04-15T13:15:02Z</time>
      </trkpt>
      <trkpt lat="44.37023" lon="4.10922">
        <ele>348.65</ele>
        <time>2016-04-15T13:15:21Z</time>
      </trkpt>
      <trkpt lat="44.37037" lon="4.10904">
        <ele>350.34</ele>
        <time>2016-04-15T13:15:39Z</time>
      </trkpt>
      <trkpt lat="44.37051" lon="4.10887">
        <ele>349.89</ele>
        <time>2016-04-15T13:15:54Z</time>
      </trkpt>
      <trkpt lat="44.3707" lon="4.10887">
        <ele>343.73</ele>
        <time>2016-04-15T13:16:12Z</time>
      </trkpt>
      <trkpt lat="44.37088" lon="4.10894">
        <ele>342.65</ele>
        <time>2016-04-15T13:16:28Z</time>
      </trkpt>
      <trkpt lat="44.37105" lon="4.10905">
        <ele>344.29</ele>
        <time>2016-04-15T13:16:46Z</time>
      </trkpt>
      <trkpt lat="44.37123" lon="4.10905">
        <ele>349.67</ele>
        <time>2016-04-15T13:17:10Z</time>
      </trkpt>
      <trkpt lat="44.37142" lon="4.10905">
        <ele>346.88</ele>
        <time>2016-04-15T13:17:31Z</time>
      </trkpt>
      <trkpt lat="44.37159" lon="4.10916">
        <ele>343.9</ele>
        <time>2016-04-15T13:17:47Z</time>
      </trkpt>
      <trkpt lat="44.37173" lon="4.10933">
        <ele>342.69</ele>
        <time>2016-04-15T13:18:02Z</time>
      </trkpt>
      <trkpt lat="44.37191" lon="4.1094">
        <ele>348.26</ele>
        <time>2016-04-15T13:18:24Z</time>
      </trkpt>
      <trkpt lat="44.3721" lon="4.10939">
        <ele>346.9</ele>
        <time>2016-04-15T13:18:40Z</time>
      </trkpt>
      <trkpt lat="44.37227" lon="4.10944">
        <ele>340.94</ele>
        <time>2016-04-15T13:18:56Z</time>
      </trkpt>
      <trkpt lat="44.3724" lon="4.10964">
        <ele>340.68</ele>
        <time>2016-04-15T13:19:22Z</time>
      </trkpt>
      <trkpt lat="44.37247" lon="4.10988">
        <ele>337.66</ele>
        <time>2016-04-15T13:19:37Z</time>
      </trkpt>
      <trkpt lat="44.37257" lon="4.11011">
        <ele>337.68</ele>
        <time>2016-04-15T13:19:57Z</time>
      </trkpt>
      <trkpt lat="44.37267" lon="4.11032">
        <ele>336.76</ele>
        <time>2016-04-15T13:20:22Z</time>
      </trkpt>
      <trkpt lat="44.37285" lon="4.11035">
        <ele>331.49</ele>
        <time>2016-04-15T13:21:36Z</time>
      </trkpt>
      <trkpt lat="44.37302" lon="4.11047">
        <ele>335.45</ele>
        <time>2016-04-15T13:33:07Z</time>
      </trkpt>
      <trkpt lat="44.3732" lon="4.11055">
        <ele>332.26</ele>
        <time>2016-04-15T13:33:28Z</time>
      </trkpt>
      <trkpt lat="44.37336" lon="4.11044">
        <ele>337.68</ele>
        <time>2016-04-15T13:33:50Z</time>
      </trkpt>
      <trkpt lat="44.37351" lon="4.11027">
        <ele>334.95</ele>
        <time>2016-04-15T13:34:13Z</time>
      </trkpt>
      <trkpt lat="44.3737" lon="4.11024">
        <ele>329.29</ele>
        <time>2016-04-15T13:34:29Z</time>
      </trkpt>
      <trkpt lat="44.37387" lon="4.11033">
        <ele>333.33</ele>
        <time>2016-04-15T13:34:52Z</time>
      </trkpt>
      <trkpt lat="44.37406" lon="4.11026">
        <ele>340.9</ele>
        <time>2016-04-15T13:35:11Z</time>
      </trkpt>
      <trkpt lat="44.37425" lon="4.11028">
        <ele>340.33</ele>
        <time>2016-04-15T13:35:34Z</time>
      </trkpt>
      <trkpt lat="44.37443" lon="4.11021">
        <ele>337.7</ele>
        <time>2016-04-15T13:35:49Z</time>
      </trkpt>
      <trkpt lat="44.3746" lon="4.11031">
        <ele>336.86</ele>
        <time>2016-04-15T13:36:06Z</time>
      </trkpt>
      <trkpt lat="44.37479" lon="4.1103">
        <ele>341.96</ele>
        <time>2016-04-15T13:36:28Z</time>
      </trkpt>
      <trkpt lat="44.37495" lon="4.11019">
        <ele>338.54</ele>
        <time>2016-04-15T13:36:42Z</time>
      </trkpt>
      <trkpt lat="44.37515" lon="4.11019">
        <ele>335.85</ele>
        <time>2016-04-15T13:36:59Z</time>
      </trkpt>
      <trkpt lat="44.37532" lon="4.11023">
        <ele>335.33</ele>
        <time>2016-04-15T13:37:12Z</time>
      </trkpt>
      <trkpt lat="44.37551" lon="4.1102">
        <ele>336.66</ele>
        <time>2016-04-15T13:37:29Z</time>
      </trkpt>
      <trkpt lat="44.37569" lon="4.11029">
        <ele>333.71</ele>
        <time>2016-04-15T13:37:48Z</time>
      </trkpt>
      <trkpt lat="44.37588" lon="4.11034">
        <ele>331.05</ele>
        <time>2016-04-15T13:38:05Z</time>
      </trkpt>
      <trkpt lat="44.37607" lon="4.11035">
        <ele>339.89</ele>
        <time>2016-04-15T13:38:27Z</time>
      </trkpt>
      <trkpt lat="44.37625" lon="4.11043">
        <ele>338.9</ele>
        <time>2016-04-15T13:38:47Z</time>
      </trkpt>
      <trkpt lat="44.37642" lon="4.1105">
        <ele>335.69</ele>
        <time>2016-04-15T13:39:03Z</time>
      </trkpt>
      <trkpt lat="44.3766" lon="4.11056">
        <ele>332.7</ele>
        <time>2016-04-15T13:39:17Z</time>
      </trkpt>
      <trkpt lat="44.37678" lon="4.11049">
        <ele>338.48</ele>
        <time>2016-04-15T13:39:33Z</time>
      </trkpt>
      <trkpt lat="44.37696" lon="4.11045">
        <ele>327.9</ele>
        <time>2016-04-15T13:39:47Z</time>
      </trkpt>
      <trkpt lat="44.37713" lon="4.11052">
        <ele>332.72</ele>
        <time>2016-04-15T13:40:10Z</time>
      </trkpt>
      <trkpt lat="44.37731" lon="4.11054">
        <ele>335.67</ele>
        <time>2016-04-15T13:40:32Z</time>
      </trkpt>
      <trkpt lat="44.37749" lon="4.11047">
        <ele>338.96</ele>
        <time>2016-04-15T13:40:47Z</time>
      </trkpt>
      <trkpt lat="44.37765" lon="4.11031">
        <ele>333.93</ele>
        <time>2016-04-15T13:40:56Z</time>
      </trkpt>
      <trkpt lat="44.37783" lon="4.11024">
        <ele>328.9</ele>
        <time>2016-04-15T13:41:06Z</time>
      </trkpt>
      <trkpt lat="44.37801" lon="4.11031">
        <ele>326.7</ele>
        <time>2016-04-15T13:41:23Z</time>
      </trkpt>
      <trkpt lat="44.37812" lon="4.11053">
        <ele>323.72</ele>
        <time>2016-04-15T13:41:45Z</time>
      </trkpt>
      <trkpt lat="44.37827" lon="4.11068">
        <ele>315.75</ele>
        <time>2016-04-15T13:41:59Z</time>
      </trkpt>
      <trkpt lat="44.37845" lon="4.11066">
        <ele>322.69</ele>
        <time>2016-04-15T13:42:17Z</time>
      </trkpt>
      <trkpt lat="44.37863" lon="4.11061">
        <ele>318.68</ele>
        <time>2016-04-15T13:42:32Z</time>
      </trkpt>
      <trkpt lat="44.37871" lon="4.11085">
        <ele>317.92</ele>
        <time>2016-04-15T13:42:53Z</time>
      </trkpt>
      <trkpt lat="44.37883" lon="4.11103">
        <ele>316.46</ele>
        <time>2016-04-15T13:43:09Z</time>
      </trkpt>
      <trkpt lat="44.37902" lon="4.11107">
        <ele>311.93</ele>
        <time>2016-04-15T13:43:24Z</time>
      </trkpt>
      <trkpt lat="44.3792" lon="4.11113">
        <ele>314.83</ele>
        <time>2016-04-15T13:43:41Z</time>
      </trkpt>
      <trkpt lat="44.3793" lon="4.11135">
        <ele>315.79</ele>
        <time>2016-04-15T13:43:59Z</time>
      </trkpt>
      <trkpt lat="44.37944" lon="4.11151">
        <ele>311.06</ele>
        <time>2016-04-15T13:44:34Z</time>
      </trkpt>
      <trkpt lat="44.37961" lon="4.11162">
        <ele>324.05</ele>
        <time>2016-04-15T13:44:49Z</time>
      </trkpt>
      <trkpt lat="44.37978" lon="4.11174">
        <ele>319.26</ele>
        <time>2016-04-15T13:45:04Z</time>
      </trkpt>
      <trkpt lat="44.37996" lon="4.11172">
        <ele>327.9</ele>
        <time>2016-04-15T13:45:32Z</time>
      </trkpt>
    </trkseg>
  </trk>
</gpx>